createdAt,value
2022-12-14T00:01:45.125Z,83.59
2022-12-14T00:04:16.465Z,83.64
2022-12-14T00:06:43.412Z,83.50
2022-12-14T00:09:10.421Z,83.23
2022-12-14T00:11:37.391Z,83.39
2022-12-14T00:14:05.127Z,83.72
2022-12-14T00:16:34.989Z,83.10
2022-12-14T00:19:02.695Z,83.26
2022-12-14T00:21:29.758Z,83.32
2022-12-14T00:23:59.241Z,83.32
2022-12-14T00:26:33.149Z,83.18
2022-12-14T00:29:01.819Z,82.97
2022-12-14T00:31:31.009Z,83.30
2022-12-14T00:33:58.794Z,82.97
2022-12-14T00:36:25.756Z,83.17
2022-12-14T00:38:52.687Z,82.82
2022-12-14T00:41:19.594Z,83.09
2022-12-14T00:43:49.500Z,83.02
2022-12-14T00:46:17.847Z,83.31
2022-12-14T00:48:45.375Z,83.27
2022-12-14T00:51:15.065Z,83.17
2022-12-14T00:53:44.513Z,83.38
2022-12-14T00:56:11.800Z,82.71
2022-12-14T00:58:38.732Z,82.52
2022-12-14T01:01:12.252Z,82.52
2022-12-14T01:03:39.419Z,82.60
2022-12-14T01:06:06.672Z,82.48
2022-12-14T01:08:36.799Z,82.56
2022-12-14T01:11:06.375Z,82.93
2022-12-14T01:13:34.516Z,83.05
2022-12-14T01:16:12.293Z,82.90
2022-12-14T01:18:42.045Z,83.29
2022-12-14T01:21:12.477Z,82.75
2022-12-14T01:23:41.331Z,82.47
2022-12-14T01:26:08.470Z,82.89
2022-12-14T01:28:35.792Z,82.70
2022-12-14T01:31:17.941Z,82.96
2022-12-14T01:33:45.865Z,82.93
2022-12-14T01:36:16.456Z,82.52
2022-12-14T01:38:44.449Z,82.97
2022-12-14T01:41:26.916Z,82.72
2022-12-14T01:44:01.040Z,82.35
2022-12-14T01:46:56.537Z,82.45
2022-12-14T01:49:41.975Z,82.88
2022-12-14T01:52:21.830Z,82.70
2022-12-14T01:55:00.209Z,82.84
2022-12-14T01:58:11.871Z,83.04
2022-12-14T02:00:39.224Z,83.14
2022-12-14T02:03:28.617Z,83.06
2022-12-14T02:06:09.174Z,82.94
2022-12-14T02:08:37.255Z,83.13
2022-12-14T02:11:04.400Z,82.98
2022-12-14T02:13:37.236Z,83.35
2022-12-14T02:16:04.623Z,83.19
2022-12-14T02:18:32.814Z,83.30
2022-12-14T02:21:29.624Z,83.33
2022-12-14T02:24:27.315Z,83.26
2022-12-14T02:27:12.454Z,83.19
2022-12-14T02:30:06.536Z,83.21
2022-12-14T02:32:46.523Z,83.38
2022-12-14T02:35:46.498Z,83.45
2022-12-14T02:38:38.604Z,83.43
2022-12-14T02:41:38.115Z,83.27
2022-12-14T02:44:30.031Z,83.41
2022-12-14T02:47:46.702Z,83.54
2022-12-14T02:50:26.991Z,83.64
2022-12-14T02:53:41.484Z,83.34
2022-12-14T02:56:14.740Z,83.57
2022-12-14T02:58:50.329Z,83.76
2022-12-14T03:01:23.845Z,83.83
2022-12-14T03:03:51.858Z,84.18
2022-12-14T03:06:28.214Z,84.24
2022-12-14T03:09:06.834Z,84.23
2022-12-14T03:11:56.243Z,84.03
2022-12-14T03:15:01.999Z,84.06
2022-12-14T03:17:32.913Z,84.21
2022-12-14T03:20:10.150Z,84.27
2022-12-14T03:22:49.281Z,84.06
2022-12-14T03:26:12.651Z,84.45
2022-12-14T03:28:51.687Z,84.64
2022-12-14T03:31:39.877Z,84.77
2022-12-14T03:34:13.488Z,84.49
2022-12-14T03:36:55.706Z,84.50
2022-12-14T03:39:35.589Z,84.79
2022-12-14T03:42:15.664Z,84.96
2022-12-14T03:45:11.137Z,84.70
2022-12-14T03:48:09.547Z,84.71
2022-12-14T03:50:40.976Z,85.14
2022-12-14T03:53:38.373Z,85.02
2022-12-14T03:56:19.853Z,85.08
2022-12-14T03:59:08.299Z,85.50
2022-12-14T04:01:53.653Z,85.33
2022-12-14T04:04:52.082Z,85.10
2022-12-14T04:07:37.356Z,85.54
2022-12-14T04:10:39.689Z,85.50
2022-12-14T04:13:37.735Z,85.41
2022-12-14T04:16:31.386Z,85.44
2022-12-14T04:19:05.248Z,85.20
2022-12-14T04:21:52.338Z,85.16
2022-12-14T04:25:19.998Z,85.44
2022-12-14T04:28:29.758Z,85.47
2022-12-14T04:31:02.846Z,85.60
2022-12-14T04:33:48.191Z,85.54
2022-12-14T04:36:44.927Z,85.55
2022-12-14T04:39:44.355Z,85.88
2022-12-14T04:42:13.502Z,85.58
2022-12-14T04:44:47.384Z,85.95
2022-12-14T04:47:17.608Z,85.75
2022-12-14T04:50:03.875Z,85.53
2022-12-14T04:52:41.198Z,85.88
2022-12-14T04:55:38.303Z,85.72
2022-12-14T04:58:28.206Z,85.70
2022-12-14T05:01:22.440Z,85.60
2022-12-14T05:04:12.592Z,85.68
2022-12-14T05:07:02.841Z,85.51
2022-12-14T05:09:56.983Z,85.86
2022-12-14T05:12:39.014Z,85.79
2022-12-14T05:15:18.696Z,86.11
2022-12-14T05:17:45.934Z,85.87
2022-12-14T05:20:20.895Z,85.81
2022-12-14T05:22:48.184Z,85.81
2022-12-14T05:25:15.579Z,85.75
2022-12-14T05:27:42.840Z,85.92
2022-12-14T05:30:10.904Z,85.82
2022-12-14T05:32:38.037Z,85.93
2022-12-14T05:35:06.182Z,86.03
2022-12-14T05:37:33.155Z,86.04
2022-12-14T05:40:00.359Z,85.84
2022-12-14T05:42:27.352Z,86.08
2022-12-14T05:44:54.682Z,86.34
2022-12-14T05:47:21.666Z,86.00
2022-12-14T05:49:49.193Z,86.01
2022-12-14T05:52:17.483Z,85.96
2022-12-14T05:54:44.428Z,86.21
2022-12-14T05:57:11.592Z,85.96
2022-12-14T05:59:38.698Z,85.83
2022-12-14T06:02:05.833Z,85.90
2022-12-14T06:04:32.943Z,86.28
2022-12-14T06:07:00.007Z,86.11
2022-12-14T06:09:26.984Z,86.05
2022-12-14T06:11:53.977Z,86.18
2022-12-14T06:14:21.268Z,86.12
2022-12-14T06:16:48.178Z,86.05
2022-12-14T06:19:15.674Z,86.06
2022-12-14T06:21:44.771Z,86.04
2022-12-14T06:24:13.294Z,86.09
2022-12-14T06:26:41.101Z,86.00
2022-12-14T06:29:15.694Z,86.15
2022-12-14T06:31:42.720Z,86.02
2022-12-14T06:34:10.273Z,86.41
2022-12-14T06:36:40.971Z,86.32
2022-12-14T06:39:16.061Z,86.21
2022-12-14T06:41:43.511Z,86.21
2022-12-14T06:44:14.078Z,86.19
2022-12-14T06:46:42.772Z,86.17
2022-12-14T06:49:16.325Z,86.18
2022-12-14T06:51:43.851Z,86.33
2022-12-14T06:54:12.628Z,86.36
2022-12-14T06:56:40.591Z,86.47
2022-12-14T06:59:08.805Z,86.51
2022-12-14T07:01:37.123Z,86.30
2022-12-14T07:04:05.237Z,86.32
2022-12-14T07:06:39.679Z,86.13
2022-12-14T07:09:12.008Z,86.19
2022-12-14T07:11:39.518Z,86.30
2022-12-14T07:14:07.130Z,86.41
2022-12-14T07:16:36.752Z,86.55
2022-12-14T07:19:04.853Z,86.36
2022-12-14T07:21:32.969Z,86.37
2022-12-14T07:24:01.290Z,86.49
2022-12-14T07:26:29.132Z,86.51
2022-12-14T07:29:00.547Z,86.50
2022-12-14T07:31:29.182Z,86.57
2022-12-14T07:33:59.205Z,86.64
2022-12-14T07:36:28.977Z,86.60
2022-12-14T07:38:56.828Z,86.71
2022-12-14T07:41:31.066Z,86.72
2022-12-14T07:44:01.478Z,86.65
2022-12-14T07:46:30.155Z,86.60
2022-12-14T07:48:59.470Z,86.66
2022-12-14T07:51:32.598Z,86.96
2022-12-14T07:54:01.669Z,86.78
2022-12-14T07:56:36.349Z,86.82
2022-12-14T07:59:08.467Z,86.58
2022-12-14T08:01:37.504Z,86.76
2022-12-14T08:04:11.640Z,86.68
2022-12-14T08:06:39.882Z,86.61
2022-12-14T08:09:09.821Z,86.87
2022-12-14T08:11:36.801Z,86.84
2022-12-14T08:14:07.545Z,86.71
2022-12-14T08:16:34.996Z,86.88
2022-12-14T08:19:02.016Z,86.77
2022-12-14T08:21:29.831Z,86.89
2022-12-14T08:23:57.882Z,86.65
2022-12-14T08:26:34.995Z,86.73
2022-12-14T08:29:03.372Z,87.07
2022-12-14T08:31:30.694Z,87.05
2022-12-14T08:34:01.943Z,87.42
2022-12-14T08:36:30.714Z,87.60
2022-12-14T08:39:00.504Z,87.53
2022-12-14T08:41:28.623Z,88.06
2022-12-14T08:44:00.757Z,88.36
2022-12-14T08:46:30.690Z,88.24
2022-12-14T08:48:58.616Z,88.43
2022-12-14T08:51:27.103Z,88.62
2022-12-14T08:53:54.789Z,88.09
2022-12-14T08:56:25.453Z,88.01
2022-12-14T08:58:52.483Z,88.48
2022-12-14T09:01:32.294Z,88.33
2022-12-14T09:04:08.312Z,87.99
2022-12-14T09:06:39.033Z,87.95
2022-12-14T09:09:13.625Z,88.24
2022-12-14T09:11:44.403Z,88.02
2022-12-14T09:14:11.658Z,87.78
2022-12-14T09:16:39.975Z,87.56
2022-12-14T09:19:07.014Z,87.69
2022-12-14T09:21:34.580Z,87.54
2022-12-14T09:24:01.691Z,87.59
2022-12-14T09:26:29.664Z,87.87
2022-12-14T09:28:57.880Z,87.95
2022-12-14T09:31:27.644Z,87.64
2022-12-14T09:33:55.045Z,87.79
2022-12-14T09:36:28.124Z,87.75
2022-12-14T09:38:57.396Z,87.88
2022-12-14T09:41:50.725Z,87.59
2022-12-14T09:44:55.747Z,87.55
2022-12-14T09:47:49.815Z,87.62
2022-12-14T09:50:20.766Z,87.44
2022-12-14T09:52:55.948Z,87.56
2022-12-14T09:55:48.034Z,87.53
2022-12-14T09:58:31.308Z,87.62
2022-12-14T10:01:23.429Z,87.64
2022-12-14T10:04:23.272Z,87.90
2022-12-14T10:07:24.086Z,87.85
2022-12-14T10:10:26.620Z,87.96
2022-12-14T10:13:24.305Z,87.66
2022-12-14T10:16:15.236Z,88.26
2022-12-14T10:19:21.049Z,88.36
2022-12-14T10:22:06.693Z,88.43
2022-12-14T10:25:06.586Z,88.40
2022-12-14T10:28:01.178Z,88.38
2022-12-14T10:30:22.892Z,88.50
2022-12-14T10:33:20.615Z,88.54
2022-12-14T10:35:54.558Z,88.32
2022-12-14T10:38:34.885Z,88.19
2022-12-14T10:41:36.889Z,88.29
2022-12-14T10:44:44.576Z,88.05
2022-12-14T10:47:29.700Z,88.10
2022-12-14T10:50:05.186Z,88.12
2022-12-14T10:52:41.416Z,88.26
2022-12-14T10:55:36.955Z,88.32
2022-12-14T10:58:04.235Z,88.15
2022-12-14T11:00:31.176Z,88.32
2022-12-14T11:02:58.858Z,88.24
2022-12-14T11:05:34.133Z,88.32
2022-12-14T11:08:04.085Z,88.36
2022-12-14T11:10:36.086Z,88.48
2022-12-14T11:13:20.759Z,88.28
2022-12-14T11:15:52.326Z,88.32
2022-12-14T11:18:19.794Z,88.44
2022-12-14T11:20:59.395Z,88.57
2022-12-14T11:23:30.720Z,88.55
2022-12-14T11:26:01.790Z,88.70
2022-12-14T11:28:50.346Z,88.98
2022-12-14T11:31:20.774Z,88.71
2022-12-14T11:33:57.202Z,88.77
2022-12-14T11:36:34.422Z,88.82
2022-12-14T11:39:15.674Z,88.70
2022-12-14T11:41:58.777Z,88.83
2022-12-14T11:44:46.642Z,88.93
2022-12-14T11:47:20.386Z,89.00
2022-12-14T11:49:57.695Z,88.91
2022-12-14T11:52:42.604Z,89.00
2022-12-14T11:55:26.478Z,89.14
2022-12-14T11:58:01.171Z,89.07
2022-12-14T12:00:43.854Z,89.17
2022-12-14T12:03:42.429Z,89.08
2022-12-14T12:06:14.227Z,89.32
2022-12-14T12:08:44.325Z,89.21
2022-12-14T12:11:21.921Z,88.85
2022-12-14T12:13:56.587Z,88.92
2022-12-14T12:16:26.890Z,89.13
2022-12-14T12:19:21.592Z,89.11
2022-12-14T12:21:48.849Z,89.38
2022-12-14T12:24:25.087Z,89.15
2022-12-14T12:27:12.004Z,88.96
2022-12-14T12:30:01.705Z,89.00
2022-12-14T12:32:43.976Z,89.08
2022-12-14T12:35:40.261Z,89.07
2022-12-14T12:38:21.812Z,88.85
2022-12-14T12:41:05.183Z,89.18
2022-12-14T12:43:50.155Z,88.89
2022-12-14T12:46:33.186Z,89.02
2022-12-14T12:49:05.922Z,89.06
2022-12-14T12:51:46.778Z,89.10
2022-12-14T12:54:27.696Z,88.95
2022-12-14T12:56:59.415Z,88.88
2022-12-14T12:59:50.222Z,88.94
2022-12-14T13:02:42.549Z,88.80
2022-12-14T13:05:45.274Z,89.08
2022-12-14T13:08:11.668Z,88.96
2022-12-14T13:11:09.065Z,89.08
2022-12-14T13:13:34.744Z,89.13
2022-12-14T13:16:29.557Z,88.98
2022-12-14T13:19:48.172Z,88.92
2022-12-14T13:22:05.202Z,89.06
2022-12-14T13:24:33.551Z,89.00
2022-12-14T13:27:33.596Z,88.88
2022-12-14T13:30:27.709Z,89.19
2022-12-14T13:33:24.677Z,89.33
2022-12-14T13:36:16.098Z,89.14
2022-12-14T13:39:23.244Z,89.21
2022-12-14T13:42:02.675Z,89.37
2022-12-14T13:45:02.126Z,88.91
2022-12-14T13:47:44.635Z,89.17
2022-12-14T13:50:43.311Z,88.95
2022-12-14T13:53:50.327Z,89.08
2022-12-14T13:56:33.213Z,89.07
2022-12-14T13:59:04.691Z,89.37
2022-12-14T14:01:47.021Z,89.22
2022-12-14T14:04:21.281Z,89.19
2022-12-14T14:06:50.438Z,89.35
2022-12-14T14:09:26.666Z,89.18
2022-12-14T14:12:25.063Z,89.21
2022-12-14T14:15:29.309Z,89.13
2022-12-14T14:18:07.057Z,89.21
2022-12-14T14:20:40.595Z,89.18
2022-12-14T14:23:16.750Z,89.15
2022-12-14T14:25:52.924Z,88.91
2022-12-14T14:28:26.369Z,88.98
2022-12-14T14:30:57.424Z,89.16
2022-12-14T14:33:55.001Z,88.92
2022-12-14T14:36:36.045Z,89.00
2022-12-14T14:39:31.454Z,88.72
2022-12-14T14:41:56.622Z,89.04
2022-12-14T14:44:37.618Z,88.28
2022-12-14T14:47:23.967Z,89.14
2022-12-14T14:49:57.802Z,88.87
2022-12-14T14:52:39.928Z,88.78
2022-12-14T14:55:52.035Z,88.87
2022-12-14T14:58:42.105Z,88.69
2022-12-14T15:01:28.540Z,88.82
2022-12-14T15:04:01.314Z,88.88
2022-12-14T15:06:41.254Z,88.75
2022-12-14T15:09:49.216Z,88.75
2022-12-14T15:12:46.801Z,88.85
2022-12-14T15:15:25.413Z,88.81
2022-12-14T15:17:52.378Z,88.72
2022-12-14T15:20:28.680Z,88.89
2022-12-14T15:22:56.847Z,88.75
2022-12-14T15:25:27.813Z,88.78
2022-12-14T15:27:57.891Z,88.74
2022-12-14T15:30:27.900Z,88.80
2022-12-14T15:33:07.613Z,88.67
2022-12-14T15:35:42.490Z,88.77
2022-12-14T15:38:27.575Z,88.54
2022-12-14T15:41:02.423Z,88.58
2022-12-14T15:43:30.675Z,88.58
2022-12-14T15:46:04.306Z,88.91
2022-12-14T15:48:34.864Z,88.43
2022-12-14T15:51:10.756Z,88.43
2022-12-14T15:53:50.807Z,88.40
2022-12-14T15:56:33.679Z,88.39
2022-12-14T15:59:23.475Z,88.52
2022-12-14T16:02:14.911Z,88.35
2022-12-14T16:04:43.554Z,88.92
2022-12-14T16:07:23.965Z,88.59
2022-12-14T16:09:57.658Z,88.67
2022-12-14T16:13:03.116Z,88.61
2022-12-14T16:15:30.550Z,88.69
2022-12-14T16:18:02.500Z,88.56
2022-12-14T16:20:37.159Z,88.41
2022-12-14T16:23:16.248Z,88.43
2022-12-14T16:26:18.144Z,88.58
2022-12-14T16:28:45.835Z,88.53
2022-12-14T16:31:21.865Z,88.43
2022-12-14T16:34:08.676Z,88.38
2022-12-14T16:36:36.866Z,88.47
2022-12-14T16:39:07.628Z,88.53
2022-12-14T16:41:42.081Z,88.26
2022-12-14T16:44:29.443Z,88.42
2022-12-14T16:47:02.528Z,88.32
2022-12-14T16:49:39.906Z,88.42
2022-12-14T16:52:09.972Z,88.42
2022-12-14T16:54:38.654Z,88.32
2022-12-14T16:57:22.900Z,88.54
2022-12-14T16:59:59.509Z,88.40
2022-12-14T17:02:44.485Z,88.37
2022-12-14T17:05:17.591Z,88.47
2022-12-14T17:07:44.560Z,88.50
2022-12-14T17:10:19.649Z,88.50
2022-12-14T17:12:47.381Z,88.67
2022-12-14T17:15:17.535Z,88.50
2022-12-14T17:17:49.524Z,88.50
2022-12-14T17:20:29.851Z,88.31
2022-12-14T17:23:01.621Z,88.46
2022-12-14T17:25:31.668Z,88.38
2022-12-14T17:27:59.701Z,88.49
2022-12-14T17:30:28.005Z,88.51
2022-12-14T17:32:55.646Z,88.41
2022-12-14T17:35:29.728Z,88.36
2022-12-14T17:37:57.429Z,88.44
2022-12-14T17:40:25.136Z,88.34
2022-12-14T17:42:57.242Z,88.52
2022-12-14T17:45:28.886Z,88.17
2022-12-14T17:47:56.926Z,88.37
2022-12-14T17:50:27.522Z,88.18
2022-12-14T17:52:54.566Z,88.16
2022-12-14T17:55:25.090Z,88.30
2022-12-14T17:57:52.903Z,88.25
2022-12-14T18:00:49.588Z,88.02
2022-12-14T18:03:18.975Z,88.29
2022-12-14T18:05:51.382Z,88.42
2022-12-14T18:08:20.299Z,88.19
2022-12-14T18:10:51.390Z,88.18
2022-12-14T18:13:18.279Z,88.13
2022-12-14T18:15:50.586Z,88.42
2022-12-14T18:18:20.086Z,88.19
2022-12-14T18:20:55.560Z,88.27
2022-12-14T18:23:23.867Z,88.53
2022-12-14T18:25:55.220Z,88.17
2022-12-14T18:28:23.311Z,88.25
2022-12-14T18:30:56.312Z,88.09
2022-12-14T18:33:26.963Z,88.62
2022-12-14T18:35:56.446Z,88.18
2022-12-14T18:38:24.186Z,88.32
2022-12-14T18:40:54.559Z,88.33
2022-12-14T18:43:25.490Z,88.22
2022-12-14T18:45:54.361Z,88.16
2022-12-14T18:48:22.631Z,88.26
2022-12-14T18:50:51.342Z,88.28
2022-12-14T18:53:22.344Z,88.29
2022-12-14T18:55:50.140Z,88.47
2022-12-14T18:58:26.672Z,88.44
2022-12-14T19:00:58.022Z,88.48
2022-12-14T19:03:25.587Z,88.19
2022-12-14T19:06:26.721Z,88.47
2022-12-14T19:08:49.434Z,88.45
2022-12-14T19:11:39.985Z,88.40
2022-12-14T19:14:07.548Z,88.41
2022-12-14T19:16:34.671Z,88.48
2022-12-14T19:19:01.786Z,88.45
2022-12-14T19:21:31.113Z,88.45
2022-12-14T19:23:59.767Z,88.58
2022-12-14T19:26:28.279Z,88.56
2022-12-14T19:28:56.597Z,88.47
2022-12-14T19:31:23.897Z,88.49
2022-12-14T19:33:50.982Z,88.32
2022-12-14T19:36:17.977Z,88.41
2022-12-14T19:38:49.007Z,88.52
2022-12-14T19:41:20.118Z,88.58
2022-12-14T19:43:47.441Z,88.64
2022-12-14T19:46:16.241Z,88.62
2022-12-14T19:48:44.628Z,88.54
2022-12-14T19:51:13.321Z,88.44
2022-12-14T19:53:42.868Z,88.43
2022-12-14T19:56:11.419Z,88.46
2022-12-14T19:58:38.376Z,88.55
2022-12-14T20:01:14.919Z,88.08
2022-12-14T20:03:42.784Z,88.59
2022-12-14T20:06:10.115Z,88.52
2022-12-14T20:08:37.481Z,88.54
2022-12-14T20:11:10.479Z,88.31
2022-12-14T20:13:37.611Z,88.45
2022-12-14T20:16:07.438Z,88.53
2022-12-14T20:18:34.486Z,88.48
2022-12-14T20:21:08.180Z,88.53
2022-12-14T20:23:37.887Z,88.46
2022-12-14T20:26:10.595Z,88.61
2022-12-14T20:28:37.743Z,88.44
2022-12-14T20:31:08.995Z,88.49
2022-12-14T20:33:37.328Z,88.75
2022-12-14T20:36:05.338Z,88.67
2022-12-14T20:38:32.381Z,88.76
2022-12-14T20:41:14.220Z,88.61
2022-12-14T20:43:43.916Z,88.61
2022-12-14T20:46:42.917Z,88.44
2022-12-14T20:49:16.637Z,88.60
2022-12-14T20:51:46.004Z,88.60
2022-12-14T20:54:17.055Z,88.66
2022-12-14T20:56:44.929Z,88.62
2022-12-14T20:59:16.814Z,88.43
2022-12-14T21:01:50.123Z,88.68
2022-12-14T21:04:20.678Z,88.46
2022-12-14T21:06:47.672Z,88.65
2022-12-14T21:09:15.145Z,88.61
2022-12-14T21:12:05.896Z,88.66
2022-12-14T21:14:36.271Z,88.63
2022-12-14T21:17:05.243Z,88.52
2022-12-14T21:19:33.162Z,88.66
2022-12-14T21:22:00.263Z,88.52
2022-12-14T21:27:27.729Z,88.56
2022-12-14T21:29:54.773Z,88.48
2022-12-14T21:32:22.728Z,88.31
2022-12-14T21:34:50.362Z,88.51
2022-12-14T21:37:17.676Z,88.38
2022-12-14T21:39:52.296Z,88.49
2022-12-14T21:42:26.404Z,88.34
2022-12-14T21:44:54.320Z,88.31
2022-12-14T21:47:30.636Z,88.34
2022-12-14T21:49:58.041Z,88.35
2022-12-14T21:52:27.444Z,88.44
2022-12-14T21:54:54.769Z,88.33
2022-12-14T21:57:42.860Z,88.37
2022-12-14T22:00:16.682Z,88.50
2022-12-14T22:02:44.052Z,88.29
2022-12-14T22:05:11.307Z,88.40
2022-12-14T22:07:38.242Z,88.43
2022-12-14T22:10:05.881Z,88.41
2022-12-14T22:12:32.886Z,88.27
2022-12-14T22:14:59.873Z,88.41
2022-12-14T22:17:26.810Z,88.32
2022-12-14T22:19:54.981Z,88.43
2022-12-14T22:22:22.085Z,88.43
2022-12-14T22:24:50.907Z,88.47
2022-12-14T22:27:18.404Z,88.29
2022-12-14T22:29:45.330Z,88.37
2022-12-14T22:32:13.106Z,88.37
2022-12-14T22:34:40.119Z,88.32
2022-12-14T22:37:07.190Z,88.40
2022-12-14T22:39:34.328Z,88.33
2022-12-14T22:42:01.311Z,88.39
2022-12-14T22:44:28.385Z,88.36
2022-12-14T22:46:55.309Z,88.34
2022-12-14T22:49:22.379Z,88.47
2022-12-14T22:51:50.384Z,88.61
2022-12-14T22:54:26.771Z,88.34
2022-12-14T22:57:17.468Z,88.41
2022-12-14T22:59:57.378Z,88.39
2022-12-14T23:02:24.542Z,88.30
2022-12-14T23:04:51.706Z,88.41
2022-12-14T23:07:18.649Z,88.35
2022-12-14T23:10:04.174Z,88.55
2022-12-14T23:12:49.556Z,88.46
2022-12-14T23:15:35.407Z,88.28
2022-12-14T23:18:23.962Z,88.33
2022-12-14T23:21:10.905Z,88.66
2022-12-14T23:23:58.190Z,88.54
2022-12-14T23:26:44.050Z,88.50
2022-12-14T23:29:29.402Z,88.46
2022-12-14T23:32:15.173Z,88.66
2022-12-14T23:35:00.450Z,88.66
2022-12-14T23:37:45.823Z,88.36
2022-12-14T23:40:31.134Z,88.73
2022-12-14T23:43:16.320Z,88.70
2022-12-14T23:46:01.839Z,88.79
2022-12-14T23:48:47.162Z,88.61
2022-12-14T23:51:32.356Z,88.64
2022-12-14T23:54:17.686Z,88.58
2022-12-14T23:57:02.958Z,88.55
2022-12-14T23:59:49.626Z,88.59
